sensor_id;sensor_type;location;lat;lon;timestamp;P1;durP1;ratioP1;P2;durP2;ratioP2
20982;SDS011;10650;51.528;6.748;2022-11-20T00:01:27;24.83;;;16.95;;
20982;SDS011;10650;51.528;6.748;2022-11-20T00:03:56;26.52;;;18.08;;
20982;SDS011;10650;51.528;6.748;2022-11-20T00:06:25;24.45;;;17.75;;
20982;SDS011;10650;51.528;6.748;2022-11-20T00:08:57;26.77;;;18.00;;
20982;SDS011;10650;51.528;6.748;2022-11-20T00:11:26;26.00;;;18.77;;
20982;SDS011;10650;51.528;6.748;2022-11-20T00:13:56;25.73;;;18.88;;
20982;SDS011;10650;51.528;6.748;2022-11-20T00:16:26;25.20;;;18.48;;
20982;SDS011;10650;51.528;6.748;2022-11-20T00:18:56;25.20;;;18.55;;
20982;SDS011;10650;51.528;6.748;2022-11-20T00:21:25;24.63;;;18.45;;
20982;SDS011;10650;51.528;6.748;2022-11-20T00:23:55;27.02;;;20.38;;
20982;SDS011;10650;51.528;6.748;2022-11-20T00:26:25;24.25;;;18.73;;
20982;SDS011;10650;51.528;6.748;2022-11-20T00:28:55;26.35;;;19.80;;
20982;SDS011;10650;51.528;6.748;2022-11-20T00:31:24;30.30;;;22.40;;
20982;SDS011;10650;51.528;6.748;2022-11-20T00:33:52;28.60;;;21.02;;
20982;SDS011;10650;51.528;6.748;2022-11-20T00:36:21;25.85;;;19.27;;
20982;SDS011;10650;51.528;6.748;2022-11-20T00:38:50;31.75;;;23.27;;
20982;SDS011;10650;51.528;6.748;2022-11-20T00:41:20;28.73;;;20.77;;
20982;SDS011;10650;51.528;6.748;2022-11-20T00:43:48;31.48;;;21.10;;
20982;SDS011;10650;51.528;6.748;2022-11-20T00:46:17;29.15;;;21.77;;
20982;SDS011;10650;51.528;6.748;2022-11-20T00:48:45;32.58;;;22.05;;
20982;SDS011;10650;51.528;6.748;2022-11-20T00:51:14;29.63;;;21.83;;
20982;SDS011;10650;51.528;6.748;2022-11-20T00:53:43;30.40;;;22.38;;
20982;SDS011;10650;51.528;6.748;2022-11-20T00:56:12;26.23;;;20.60;;
20982;SDS011;10650;51.528;6.748;2022-11-20T00:58:43;31.45;;;22.52;;
20982;SDS011;10650;51.528;6.748;2022-11-20T01:01:13;29.90;;;22.45;;
20982;SDS011;10650;51.528;6.748;2022-11-20T01:03:43;26.70;;;19.35;;
20982;SDS011;10650;51.528;6.748;2022-11-20T01:06:12;30.80;;;22.58;;
20982;SDS011;10650;51.528;6.748;2022-11-20T01:08:42;26.92;;;19.55;;
20982;SDS011;10650;51.528;6.748;2022-11-20T01:11:11;27.17;;;19.73;;
20982;SDS011;10650;51.528;6.748;2022-11-20T01:13:41;28.35;;;20.50;;
20982;SDS011;10650;51.528;6.748;2022-11-20T01:16:12;24.77;;;18.95;;
20982;SDS011;10650;51.528;6.748;2022-11-20T01:18:41;27.92;;;20.08;;
20982;SDS011;10650;51.528;6.748;2022-11-20T01:21:11;33.25;;;23.23;;
20982;SDS011;10650;51.528;6.748;2022-11-20T01:23:41;33.58;;;23.50;;
20982;SDS011;10650;51.528;6.748;2022-11-20T01:26:10;27.73;;;20.17;;
20982;SDS011;10650;51.528;6.748;2022-11-20T01:28:44;28.25;;;19.90;;
20982;SDS011;10650;51.528;6.748;2022-11-20T01:31:12;23.75;;;18.02;;
20982;SDS011;10650;51.528;6.748;2022-11-20T01:33:41;27.35;;;19.42;;
20982;SDS011;10650;51.528;6.748;2022-11-20T01:36:10;25.67;;;18.98;;
20982;SDS011;10650;51.528;6.748;2022-11-20T01:38:39;26.67;;;18.58;;
20982;SDS011;10650;51.528;6.748;2022-11-20T01:41:07;30.08;;;21.17;;
20982;SDS011;10650;51.528;6.748;2022-11-20T01:43:35;24.88;;;18.35;;
20982;SDS011;10650;51.528;6.748;2022-11-20T01:46:11;31.85;;;21.77;;
20982;SDS011;10650;51.528;6.748;2022-11-20T01:48:43;32.70;;;21.50;;
20982;SDS011;10650;51.528;6.748;2022-11-20T01:51:17;32.50;;;21.98;;
20982;SDS011;10650;51.528;6.748;2022-11-20T01:53:48;29.95;;;21.40;;
20982;SDS011;10650;51.528;6.748;2022-11-20T01:56:18;26.25;;;18.92;;
20982;SDS011;10650;51.528;6.748;2022-11-20T01:58:47;32.38;;;20.30;;
20982;SDS011;10650;51.528;6.748;2022-11-20T02:01:20;36.08;;;23.17;;
20982;SDS011;10650;51.528;6.748;2022-11-20T02:03:48;33.17;;;22.52;;
20982;SDS011;10650;51.528;6.748;2022-11-20T02:06:19;28.48;;;20.98;;
20982;SDS011;10650;51.528;6.748;2022-11-20T02:08:51;31.33;;;20.95;;
20982;SDS011;10650;51.528;6.748;2022-11-20T02:11:19;27.85;;;19.60;;
20982;SDS011;10650;51.528;6.748;2022-11-20T02:13:47;27.92;;;19.60;;
20982;SDS011;10650;51.528;6.748;2022-11-20T02:16:16;24.98;;;17.85;;
20982;SDS011;10650;51.528;6.748;2022-11-20T02:18:48;29.40;;;20.58;;
20982;SDS011;10650;51.528;6.748;2022-11-20T02:24:06;30.02;;;20.83;;
20982;SDS011;10650;51.528;6.748;2022-11-20T02:26:39;31.48;;;20.48;;
20982;SDS011;10650;51.528;6.748;2022-11-20T02:29:12;26.48;;;18.60;;
20982;SDS011;10650;51.528;6.748;2022-11-20T02:31:42;25.63;;;18.60;;
20982;SDS011;10650;51.528;6.748;2022-11-20T02:34:11;26.35;;;18.52;;
20982;SDS011;10650;51.528;6.748;2022-11-20T02:36:39;28.15;;;19.33;;
20982;SDS011;10650;51.528;6.748;2022-11-20T02:39:11;29.00;;;21.13;;
20982;SDS011;10650;51.528;6.748;2022-11-20T02:41:43;28.10;;;18.92;;
20982;SDS011;10650;51.528;6.748;2022-11-20T02:44:11;30.08;;;21.15;;
20982;SDS011;10650;51.528;6.748;2022-11-20T02:46:39;26.88;;;19.48;;
20982;SDS011;10650;51.528;6.748;2022-11-20T02:49:07;28.10;;;19.90;;
20982;SDS011;10650;51.528;6.748;2022-11-20T02:51:35;27.17;;;18.85;;
20982;SDS011;10650;51.528;6.748;2022-11-20T02:54:02;28.38;;;19.85;;
20982;SDS011;10650;51.528;6.748;2022-11-20T02:56:32;25.77;;;18.67;;
20982;SDS011;10650;51.528;6.748;2022-11-20T02:59:00;28.98;;;20.73;;
20982;SDS011;10650;51.528;6.748;2022-11-20T03:01:27;27.75;;;20.25;;
20982;SDS011;10650;51.528;6.748;2022-11-20T03:03:55;31.38;;;21.60;;
20982;SDS011;10650;51.528;6.748;2022-11-20T03:06:26;31.33;;;21.42;;
20982;SDS011;10650;51.528;6.748;2022-11-20T03:08:54;30.40;;;20.48;;
20982;SDS011;10650;51.528;6.748;2022-11-20T03:11:21;31.60;;;22.52;;
20982;SDS011;10650;51.528;6.748;2022-11-20T03:13:51;27.40;;;19.08;;
20982;SDS011;10650;51.528;6.748;2022-11-20T03:16:19;33.45;;;22.77;;
20982;SDS011;10650;51.528;6.748;2022-11-20T03:18:51;24.80;;;19.10;;
20982;SDS011;10650;51.528;6.748;2022-11-20T03:21:19;27.45;;;19.20;;
20982;SDS011;10650;51.528;6.748;2022-11-20T03:23:47;29.52;;;21.15;;
20982;SDS011;10650;51.528;6.748;2022-11-20T03:26:16;28.00;;;20.10;;
20982;SDS011;10650;51.528;6.748;2022-11-20T03:28:46;27.88;;;19.65;;
20982;SDS011;10650;51.528;6.748;2022-11-20T03:31:16;29.40;;;21.88;;
20982;SDS011;10650;51.528;6.748;2022-11-20T03:33:45;28.35;;;20.77;;
20982;SDS011;10650;51.528;6.748;2022-11-20T03:36:14;28.27;;;20.00;;
20982;SDS011;10650;51.528;6.748;2022-11-20T03:38:43;28.23;;;19.80;;
20982;SDS011;10650;51.528;6.748;2022-11-20T03:41:12;31.23;;;21.70;;
20982;SDS011;10650;51.528;6.748;2022-11-20T03:43:40;29.92;;;21.15;;
20982;SDS011;10650;51.528;6.748;2022-11-20T03:46:08;28.77;;;20.08;;
20982;SDS011;10650;51.528;6.748;2022-11-20T03:48:38;28.08;;;19.48;;
20982;SDS011;10650;51.528;6.748;2022-11-20T03:51:06;27.25;;;20.25;;
20982;SDS011;10650;51.528;6.748;2022-11-20T03:53:35;27.33;;;20.48;;
20982;SDS011;10650;51.528;6.748;2022-11-20T03:56:03;26.63;;;19.17;;
20982;SDS011;10650;51.528;6.748;2022-11-20T03:58:32;26.92;;;19.25;;
20982;SDS011;10650;51.528;6.748;2022-11-20T04:01:04;27.90;;;19.88;;
20982;SDS011;10650;51.528;6.748;2022-11-20T04:03:33;26.98;;;18.92;;
20982;SDS011;10650;51.528;6.748;2022-11-20T04:06:04;29.30;;;20.67;;
20982;SDS011;10650;51.528;6.748;2022-11-20T04:08:33;26.40;;;19.45;;
20982;SDS011;10650;51.528;6.748;2022-11-20T04:11:10;24.58;;;18.77;;
20982;SDS011;10650;51.528;6.748;2022-11-20T04:13:39;26.38;;;20.27;;
20982;SDS011;10650;51.528;6.748;2022-11-20T04:16:07;30.20;;;21.83;;
20982;SDS011;10650;51.528;6.748;2022-11-20T04:18:36;30.50;;;21.67;;
20982;SDS011;10650;51.528;6.748;2022-11-20T04:21:06;26.80;;;18.83;;
20982;SDS011;10650;51.528;6.748;2022-11-20T04:23:34;26.45;;;18.73;;
20982;SDS011;10650;51.528;6.748;2022-11-20T04:26:02;26.50;;;19.45;;
20982;SDS011;10650;51.528;6.748;2022-11-20T04:28:31;23.48;;;18.05;;
20982;SDS011;10650;51.528;6.748;2022-11-20T04:31:02;24.48;;;18.35;;
20982;SDS011;10650;51.528;6.748;2022-11-20T04:33:31;24.73;;;18.48;;
20982;SDS011;10650;51.528;6.748;2022-11-20T04:36:00;24.67;;;18.70;;
20982;SDS011;10650;51.528;6.748;2022-11-20T04:38:31;29.33;;;20.55;;
20982;SDS011;10650;51.528;6.748;2022-11-20T04:40:59;29.42;;;21.02;;
20982;SDS011;10650;51.528;6.748;2022-11-20T04:43:28;26.75;;;18.73;;
20982;SDS011;10650;51.528;6.748;2022-11-20T04:45:56;26.33;;;19.27;;
20982;SDS011;10650;51.528;6.748;2022-11-20T04:48:25;25.92;;;18.48;;
20982;SDS011;10650;51.528;6.748;2022-11-20T04:50:54;23.25;;;17.73;;
20982;SDS011;10650;51.528;6.748;2022-11-20T04:53:22;25.42;;;18.58;;
20982;SDS011;10650;51.528;6.748;2022-11-20T04:55:51;26.45;;;18.63;;
20982;SDS011;10650;51.528;6.748;2022-11-20T04:58:19;27.38;;;19.63;;
20982;SDS011;10650;51.528;6.748;2022-11-20T05:00:46;24.95;;;19.20;;
20982;SDS011;10650;51.528;6.748;2022-11-20T05:03:14;28.40;;;21.40;;
20982;SDS011;10650;51.528;6.748;2022-11-20T05:05:42;28.35;;;21.08;;
20982;SDS011;10650;51.528;6.748;2022-11-20T05:08:09;27.20;;;20.50;;
20982;SDS011;10650;51.528;6.748;2022-11-20T05:10:37;28.55;;;20.63;;
20982;SDS011;10650;51.528;6.748;2022-11-20T05:13:06;30.00;;;21.02;;
20982;SDS011;10650;51.528;6.748;2022-11-20T05:15:34;24.90;;;18.58;;
20982;SDS011;10650;51.528;6.748;2022-11-20T05:18:02;27.83;;;20.48;;
20982;SDS011;10650;51.528;6.748;2022-11-20T05:20:30;27.48;;;19.63;;
20982;SDS011;10650;51.528;6.748;2022-11-20T05:22:57;25.85;;;19.85;;
20982;SDS011;10650;51.528;6.748;2022-11-20T05:25:25;26.98;;;19.60;;
20982;SDS011;10650;51.528;6.748;2022-11-20T05:27:53;27.83;;;20.40;;
20982;SDS011;10650;51.528;6.748;2022-11-20T05:30:22;27.92;;;19.25;;
20982;SDS011;10650;51.528;6.748;2022-11-20T05:32:50;28.17;;;19.95;;
20982;SDS011;10650;51.528;6.748;2022-11-20T05:35:20;30.38;;;21.27;;
20982;SDS011;10650;51.528;6.748;2022-11-20T05:37:48;29.88;;;21.17;;
20982;SDS011;10650;51.528;6.748;2022-11-20T05:40:15;29.63;;;21.27;;
20982;SDS011;10650;51.528;6.748;2022-11-20T05:42:43;29.05;;;21.00;;
20982;SDS011;10650;51.528;6.748;2022-11-20T05:45:11;27.60;;;20.30;;
20982;SDS011;10650;51.528;6.748;2022-11-20T05:47:40;23.30;;;17.63;;
20982;SDS011;10650;51.528;6.748;2022-11-20T05:50:08;30.17;;;21.35;;
20982;SDS011;10650;51.528;6.748;2022-11-20T05:52:36;27.42;;;19.67;;
20982;SDS011;10650;51.528;6.748;2022-11-20T05:55:04;26.55;;;19.90;;
20982;SDS011;10650;51.528;6.748;2022-11-20T05:57:32;28.83;;;20.83;;
20982;SDS011;10650;51.528;6.748;2022-11-20T06:00:00;29.60;;;21.00;;
20982;SDS011;10650;51.528;6.748;2022-11-20T06:02:28;28.00;;;19.45;;
20982;SDS011;10650;51.528;6.748;2022-11-20T06:04:57;30.70;;;21.00;;
20982;SDS011;10650;51.528;6.748;2022-11-20T06:07:25;29.98;;;20.95;;
20982;SDS011;10650;51.528;6.748;2022-11-20T06:09:53;26.95;;;19.05;;
20982;SDS011;10650;51.528;6.748;2022-11-20T06:12:21;24.45;;;17.75;;
20982;SDS011;10650;51.528;6.748;2022-11-20T06:14:49;28.73;;;19.77;;
20982;SDS011;10650;51.528;6.748;2022-11-20T06:17:17;26.80;;;19.75;;
20982;SDS011;10650;51.528;6.748;2022-11-20T06:19:45;26.25;;;18.65;;
20982;SDS011;10650;51.528;6.748;2022-11-20T06:22:14;29.80;;;21.90;;
20982;SDS011;10650;51.528;6.748;2022-11-20T06:24:42;32.08;;;22.85;;
20982;SDS011;10650;51.528;6.748;2022-11-20T06:27:10;29.02;;;21.23;;
20982;SDS011;10650;51.528;6.748;2022-11-20T06:29:38;34.72;;;24.33;;
20982;SDS011;10650;51.528;6.748;2022-11-20T06:32:05;29.48;;;21.85;;
20982;SDS011;10650;51.528;6.748;2022-11-20T06:34:33;30.40;;;20.88;;
20982;SDS011;10650;51.528;6.748;2022-11-20T06:37:01;31.15;;;22.00;;
20982;SDS011;10650;51.528;6.748;2022-11-20T06:39:38;33.70;;;23.17;;
20982;SDS011;10650;51.528;6.748;2022-11-20T06:42:18;28.83;;;21.08;;
20982;SDS011;10650;51.528;6.748;2022-11-20T06:44:46;28.35;;;20.88;;
20982;SDS011;10650;51.528;6.748;2022-11-20T06:47:14;34.40;;;23.48;;
20982;SDS011;10650;51.528;6.748;2022-11-20T06:49:42;30.05;;;21.10;;
20982;SDS011;10650;51.528;6.748;2022-11-20T06:52:10;28.63;;;19.92;;
20982;SDS011;10650;51.528;6.748;2022-11-20T06:54:39;28.17;;;20.38;;
20982;SDS011;10650;51.528;6.748;2022-11-20T06:57:06;34.00;;;24.52;;
20982;SDS011;10650;51.528;6.748;2022-11-20T06:59:38;32.58;;;23.30;;
20982;SDS011;10650;51.528;6.748;2022-11-20T07:02:08;31.15;;;21.67;;
20982;SDS011;10650;51.528;6.748;2022-11-20T07:04:37;34.20;;;24.60;;
20982;SDS011;10650;51.528;6.748;2022-11-20T07:07:05;28.90;;;21.50;;
20982;SDS011;10650;51.528;6.748;2022-11-20T07:09:35;32.25;;;22.38;;
20982;SDS011;10650;51.528;6.748;2022-11-20T07:12:05;30.58;;;22.75;;
20982;SDS011;10650;51.528;6.748;2022-11-20T07:14:33;35.60;;;26.40;;
20982;SDS011;10650;51.528;6.748;2022-11-20T07:17:01;36.15;;;25.90;;
20982;SDS011;10650;51.528;6.748;2022-11-20T07:19:29;29.95;;;21.67;;
20982;SDS011;10650;51.528;6.748;2022-11-20T07:21:57;33.45;;;24.27;;
20982;SDS011;10650;51.528;6.748;2022-11-20T07:24:25;30.58;;;21.70;;
20982;SDS011;10650;51.528;6.748;2022-11-20T07:26:53;34.40;;;25.08;;
20982;SDS011;10650;51.528;6.748;2022-11-20T07:29:22;32.65;;;23.88;;
20982;SDS011;10650;51.528;6.748;2022-11-20T07:31:50;35.30;;;25.77;;
20982;SDS011;10650;51.528;6.748;2022-11-20T07:34:17;36.88;;;26.48;;
20982;SDS011;10650;51.528;6.748;2022-11-20T07:36:46;39.25;;;27.05;;
20982;SDS011;10650;51.528;6.748;2022-11-20T07:39:14;37.97;;;26.55;;
20982;SDS011;10650;51.528;6.748;2022-11-20T07:41:42;38.20;;;26.95;;
20982;SDS011;10650;51.528;6.748;2022-11-20T07:44:09;35.10;;;24.98;;
20982;SDS011;10650;51.528;6.748;2022-11-20T07:46:39;35.17;;;24.60;;
20982;SDS011;10650;51.528;6.748;2022-11-20T07:49:06;35.15;;;24.95;;
20982;SDS011;10650;51.528;6.748;2022-11-20T07:51:34;31.25;;;23.55;;
20982;SDS011;10650;51.528;6.748;2022-11-20T07:54:02;34.55;;;25.17;;
20982;SDS011;10650;51.528;6.748;2022-11-20T07:56:30;35.72;;;26.35;;
20982;SDS011;10650;51.528;6.748;2022-11-20T07:58:58;37.50;;;27.95;;
20982;SDS011;10650;51.528;6.748;2022-11-20T08:01:25;39.75;;;29.13;;
20982;SDS011;10650;51.528;6.748;2022-11-20T08:03:55;35.67;;;26.60;;
20982;SDS011;10650;51.528;6.748;2022-11-20T08:06:22;39.70;;;29.70;;
20982;SDS011;10650;51.528;6.748;2022-11-20T08:08:50;42.90;;;30.60;;
20982;SDS011;10650;51.528;6.748;2022-11-20T08:11:18;37.45;;;28.10;;
20982;SDS011;10650;51.528;6.748;2022-11-20T08:14:09;36.92;;;27.08;;
20982;SDS011;10650;51.528;6.748;2022-11-20T08:16:40;38.75;;;27.98;;
20982;SDS011;10650;51.528;6.748;2022-11-20T08:19:11;38.80;;;29.50;;
20982;SDS011;10650;51.528;6.748;2022-11-20T08:21:39;46.03;;;33.50;;
20982;SDS011;10650;51.528;6.748;2022-11-20T08:24:07;39.42;;;30.02;;
20982;SDS011;10650;51.528;6.748;2022-11-20T08:26:36;40.22;;;29.67;;
20982;SDS011;10650;51.528;6.748;2022-11-20T08:29:05;35.08;;;25.92;;
20982;SDS011;10650;51.528;6.748;2022-11-20T08:31:33;36.30;;;26.70;;
20982;SDS011;10650;51.528;6.748;2022-11-20T08:34:01;40.58;;;29.88;;
20982;SDS011;10650;51.528;6.748;2022-11-20T08:36:36;49.60;;;35.05;;
20982;SDS011;10650;51.528;6.748;2022-11-20T08:39:04;56.92;;;37.28;;
20982;SDS011;10650;51.528;6.748;2022-11-20T08:41:32;47.83;;;31.90;;
20982;SDS011;10650;51.528;6.748;2022-11-20T08:44:00;46.08;;;31.50;;
20982;SDS011;10650;51.528;6.748;2022-11-20T08:46:31;38.95;;;29.80;;
20982;SDS011;10650;51.528;6.748;2022-11-20T08:49:01;39.45;;;28.08;;
20982;SDS011;10650;51.528;6.748;2022-11-20T08:51:29;38.28;;;27.58;;
20982;SDS011;10650;51.528;6.748;2022-11-20T08:53:58;47.00;;;35.50;;
20982;SDS011;10650;51.528;6.748;2022-11-20T08:56:26;58.67;;;40.17;;
20982;SDS011;10650;51.528;6.748;2022-11-20T08:58:54;51.47;;;36.75;;
20982;SDS011;10650;51.528;6.748;2022-11-20T09:01:42;53.83;;;38.08;;
20982;SDS011;10650;51.528;6.748;2022-11-20T09:04:10;47.78;;;34.65;;
20982;SDS011;10650;51.528;6.748;2022-11-20T09:06:38;58.28;;;41.85;;
20982;SDS011;10650;51.528;6.748;2022-11-20T09:09:07;46.35;;;34.35;;
20982;SDS011;10650;51.528;6.748;2022-11-20T09:11:34;45.08;;;33.38;;
20982;SDS011;10650;51.528;6.748;2022-11-20T09:14:02;40.90;;;29.70;;
20982;SDS011;10650;51.528;6.748;2022-11-20T09:16:30;43.55;;;31.65;;
20982;SDS011;10650;51.528;6.748;2022-11-20T09:18:58;41.63;;;30.15;;
20982;SDS011;10650;51.528;6.748;2022-11-20T09:21:46;45.88;;;32.83;;
20982;SDS011;10650;51.528;6.748;2022-11-20T09:24:15;48.45;;;35.10;;
20982;SDS011;10650;51.528;6.748;2022-11-20T09:26:43;47.05;;;33.03;;
20982;SDS011;10650;51.528;6.748;2022-11-20T09:29:11;44.03;;;32.20;;
20982;SDS011;10650;51.528;6.748;2022-11-20T09:31:38;42.55;;;31.67;;
20982;SDS011;10650;51.528;6.748;2022-11-20T09:34:06;54.25;;;38.03;;
20982;SDS011;10650;51.528;6.748;2022-11-20T09:36:34;46.42;;;33.47;;
20982;SDS011;10650;51.528;6.748;2022-11-20T09:39:02;46.65;;;33.78;;
20982;SDS011;10650;51.528;6.748;2022-11-20T09:41:39;46.15;;;34.42;;
20982;SDS011;10650;51.528;6.748;2022-11-20T09:44:26;51.33;;;36.13;;
20982;SDS011;10650;51.528;6.748;2022-11-20T09:47:06;49.50;;;34.35;;
20982;SDS011;10650;51.528;6.748;2022-11-20T09:49:41;51.78;;;36.45;;
20982;SDS011;10650;51.528;6.748;2022-11-20T09:52:22;52.47;;;37.53;;
20982;SDS011;10650;51.528;6.748;2022-11-20T09:55:00;58.22;;;38.63;;
20982;SDS011;10650;51.528;6.748;2022-11-20T09:57:33;67.28;;;46.00;;
20982;SDS011;10650;51.528;6.748;2022-11-20T10:00:05;55.88;;;40.60;;
20982;SDS011;10650;51.528;6.748;2022-11-20T10:02:37;59.92;;;43.10;;
20982;SDS011;10650;51.528;6.748;2022-11-20T10:05:12;54.58;;;38.50;;
20982;SDS011;10650;51.528;6.748;2022-11-20T10:07:47;56.35;;;39.22;;
20982;SDS011;10650;51.528;6.748;2022-11-20T10:10:24;53.92;;;38.25;;
20982;SDS011;10650;51.528;6.748;2022-11-20T10:13:04;51.55;;;36.33;;
20982;SDS011;10650;51.528;6.748;2022-11-20T10:15:44;50.33;;;36.75;;
20982;SDS011;10650;51.528;6.748;2022-11-20T10:18:23;50.10;;;37.13;;
20982;SDS011;10650;51.528;6.748;2022-11-20T10:21:03;53.38;;;36.72;;
20982;SDS011;10650;51.528;6.748;2022-11-20T10:23:50;51.22;;;37.28;;
20982;SDS011;10650;51.528;6.748;2022-11-20T10:26:40;55.58;;;38.88;;
20982;SDS011;10650;51.528;6.748;2022-11-20T10:29:16;52.60;;;38.47;;
20982;SDS011;10650;51.528;6.748;2022-11-20T10:31:45;54.05;;;37.35;;
20982;SDS011;10650;51.528;6.748;2022-11-20T10:34:19;50.58;;;36.40;;
20982;SDS011;10650;51.528;6.748;2022-11-20T10:36:52;45.67;;;32.97;;
20982;SDS011;10650;51.528;6.748;2022-11-20T10:39:25;47.42;;;34.40;;
20982;SDS011;10650;51.528;6.748;2022-11-20T10:41:58;42.28;;;30.20;;
20982;SDS011;10650;51.528;6.748;2022-11-20T10:44:29;38.70;;;30.02;;
20982;SDS011;10650;51.528;6.748;2022-11-20T10:47:21;33.10;;;25.00;;
20982;SDS011;10650;51.528;6.748;2022-11-20T10:49:50;38.15;;;27.17;;
20982;SDS011;10650;51.528;6.748;2022-11-20T10:52:21;33.42;;;25.58;;
20982;SDS011;10650;51.528;6.748;2022-11-20T10:54:57;32.15;;;24.58;;
20982;SDS011;10650;51.528;6.748;2022-11-20T10:57:36;30.58;;;23.80;;
20982;SDS011;10650;51.528;6.748;2022-11-20T11:00:15;31.73;;;23.60;;
20982;SDS011;10650;51.528;6.748;2022-11-20T11:02:46;33.75;;;23.70;;
20982;SDS011;10650;51.528;6.748;2022-11-20T11:05:24;34.05;;;24.95;;
20982;SDS011;10650;51.528;6.748;2022-11-20T11:07:59;32.45;;;24.15;;
20982;SDS011;10650;51.528;6.748;2022-11-20T11:10:29;33.80;;;24.52;;
20982;SDS011;10650;51.528;6.748;2022-11-20T11:13:03;34.40;;;24.42;;
20982;SDS011;10650;51.528;6.748;2022-11-20T11:15:37;35.13;;;26.17;;
20982;SDS011;10650;51.528;6.748;2022-11-20T11:18:08;43.47;;;31.77;;
20982;SDS011;10650;51.528;6.748;2022-11-20T11:20:37;39.35;;;28.60;;
20982;SDS011;10650;51.528;6.748;2022-11-20T11:23:10;36.83;;;26.88;;
20982;SDS011;10650;51.528;6.748;2022-11-20T11:25:58;40.40;;;27.38;;
20982;SDS011;10650;51.528;6.748;2022-11-20T11:28:27;35.03;;;26.73;;
20982;SDS011;10650;51.528;6.748;2022-11-20T11:30:57;42.05;;;28.70;;
20982;SDS011;10650;51.528;6.748;2022-11-20T11:33:25;41.30;;;27.40;;
20982;SDS011;10650;51.528;6.748;2022-11-20T11:35:55;39.55;;;26.85;;
20982;SDS011;10650;51.528;6.748;2022-11-20T11:38:28;43.83;;;28.95;;
20982;SDS011;10650;51.528;6.748;2022-11-20T11:40:58;46.33;;;30.58;;
20982;SDS011;10650;51.528;6.748;2022-11-20T11:43:26;46.03;;;31.02;;
20982;SDS011;10650;51.528;6.748;2022-11-20T11:46:23;42.92;;;27.65;;
20982;SDS011;10650;51.528;6.748;2022-11-20T11:48:55;39.95;;;27.65;;
20982;SDS011;10650;51.528;6.748;2022-11-20T11:51:25;46.40;;;31.75;;
20982;SDS011;10650;51.528;6.748;2022-11-20T11:53:58;44.15;;;30.13;;
20982;SDS011;10650;51.528;6.748;2022-11-20T11:56:28;41.00;;;30.55;;
20982;SDS011;10650;51.528;6.748;2022-11-20T11:58:59;38.53;;;26.05;;
20982;SDS011;10650;51.528;6.748;2022-11-20T12:01:33;36.65;;;26.88;;
20982;SDS011;10650;51.528;6.748;2022-11-20T12:04:10;38.00;;;27.05;;
20982;SDS011;10650;51.528;6.748;2022-11-20T12:06:45;39.50;;;29.63;;
20982;SDS011;10650;51.528;6.748;2022-11-20T12:09:17;37.40;;;26.73;;
20982;SDS011;10650;51.528;6.748;2022-11-20T12:11:49;36.22;;;25.80;;
20982;SDS011;10650;51.528;6.748;2022-11-20T12:14:33;37.05;;;27.73;;
20982;SDS011;10650;51.528;6.748;2022-11-20T12:17:07;35.78;;;26.60;;
20982;SDS011;10650;51.528;6.748;2022-11-20T12:19:37;40.38;;;29.50;;
20982;SDS011;10650;51.528;6.748;2022-11-20T12:22:07;37.00;;;26.13;;
20982;SDS011;10650;51.528;6.748;2022-11-20T12:24:51;32.70;;;23.20;;
20982;SDS011;10650;51.528;6.748;2022-11-20T12:27:38;29.83;;;21.63;;
20982;SDS011;10650;51.528;6.748;2022-11-20T12:30:19;30.48;;;21.48;;
20982;SDS011;10650;51.528;6.748;2022-11-20T12:32:59;30.77;;;21.77;;
20982;SDS011;10650;51.528;6.748;2022-11-20T12:35:49;29.58;;;20.75;;
20982;SDS011;10650;51.528;6.748;2022-11-20T12:38:37;31.55;;;21.92;;
20982;SDS011;10650;51.528;6.748;2022-11-20T12:41:13;30.75;;;22.52;;
20982;SDS011;10650;51.528;6.748;2022-11-20T12:44:08;29.73;;;21.08;;
20982;SDS011;10650;51.528;6.748;2022-11-20T12:47:04;31.73;;;21.17;;
20982;SDS011;10650;51.528;6.748;2022-11-20T12:49:44;30.80;;;21.10;;
20982;SDS011;10650;51.528;6.748;2022-11-20T12:52:23;29.42;;;20.60;;
20982;SDS011;10650;51.528;6.748;2022-11-20T12:55:16;32.67;;;21.20;;
20982;SDS011;10650;51.528;6.748;2022-11-20T12:57:53;29.55;;;20.70;;
20982;SDS011;10650;51.528;6.748;2022-11-20T13:00:25;30.15;;;20.27;;
20982;SDS011;10650;51.528;6.748;2022-11-20T13:06:05;28.77;;;20.02;;
20982;SDS011;10650;51.528;6.748;2022-11-20T13:08:41;31.02;;;20.08;;
20982;SDS011;10650;51.528;6.748;2022-11-20T13:11:14;37.80;;;25.52;;
20982;SDS011;10650;51.528;6.748;2022-11-20T13:13:52;29.58;;;21.60;;
20982;SDS011;10650;51.528;6.748;2022-11-20T13:16:33;28.00;;;19.95;;
20982;SDS011;10650;51.528;6.748;2022-11-20T13:19:08;28.88;;;19.98;;
20982;SDS011;10650;51.528;6.748;2022-11-20T13:21:40;33.85;;;22.55;;
20982;SDS011;10650;51.528;6.748;2022-11-20T13:24:20;30.85;;;21.20;;
20982;SDS011;10650;51.528;6.748;2022-11-20T13:26:59;33.00;;;23.33;;
20982;SDS011;10650;51.528;6.748;2022-11-20T13:29:28;32.75;;;21.77;;
20982;SDS011;10650;51.528;6.748;2022-11-20T13:32:04;33.58;;;22.50;;
20982;SDS011;10650;51.528;6.748;2022-11-20T13:34:34;36.85;;;26.15;;
20982;SDS011;10650;51.528;6.748;2022-11-20T13:37:04;34.80;;;22.52;;
20982;SDS011;10650;51.528;6.748;2022-11-20T13:39:32;32.47;;;22.10;;
20982;SDS011;10650;51.528;6.748;2022-11-20T13:42:02;38.10;;;25.90;;
20982;SDS011;10650;51.528;6.748;2022-11-20T13:44:50;35.25;;;23.55;;
20982;SDS011;10650;51.528;6.748;2022-11-20T13:47:21;38.35;;;28.27;;
20982;SDS011;10650;51.528;6.748;2022-11-20T13:49:50;35.05;;;23.67;;
20982;SDS011;10650;51.528;6.748;2022-11-20T13:52:27;38.72;;;24.77;;
20982;SDS011;10650;51.528;6.748;2022-11-20T13:55:11;43.03;;;28.02;;
20982;SDS011;10650;51.528;6.748;2022-11-20T13:58:07;37.75;;;24.40;;
20982;SDS011;10650;51.528;6.748;2022-11-20T14:00:47;37.80;;;27.45;;
20982;SDS011;10650;51.528;6.748;2022-11-20T14:03:20;50.08;;;31.95;;
20982;SDS011;10650;51.528;6.748;2022-11-20T14:06:11;53.95;;;33.17;;
20982;SDS011;10650;51.528;6.748;2022-11-20T14:08:45;46.22;;;29.25;;
20982;SDS011;10650;51.528;6.748;2022-11-20T14:11:17;43.17;;;27.40;;
20982;SDS011;10650;51.528;6.748;2022-11-20T14:13:56;42.65;;;27.10;;
20982;SDS011;10650;51.528;6.748;2022-11-20T14:16:27;43.80;;;27.70;;
20982;SDS011;10650;51.528;6.748;2022-11-20T14:18:57;54.78;;;35.38;;
20982;SDS011;10650;51.528;6.748;2022-11-20T14:21:44;48.63;;;31.33;;
20982;SDS011;10650;51.528;6.748;2022-11-20T14:24:14;56.45;;;35.78;;
20982;SDS011;10650;51.528;6.748;2022-11-20T14:26:48;51.83;;;32.80;;
20982;SDS011;10650;51.528;6.748;2022-11-20T14:29:18;60.72;;;41.22;;
20982;SDS011;10650;51.528;6.748;2022-11-20T14:31:50;68.22;;;46.47;;
20982;SDS011;10650;51.528;6.748;2022-11-20T14:34:20;69.90;;;47.10;;
20982;SDS011;10650;51.528;6.748;2022-11-20T14:36:52;58.10;;;36.97;;
20982;SDS011;10650;51.528;6.748;2022-11-20T14:39:27;53.65;;;35.15;;
20982;SDS011;10650;51.528;6.748;2022-11-20T14:41:58;49.22;;;31.85;;
20982;SDS011;10650;51.528;6.748;2022-11-20T14:44:27;49.67;;;31.33;;
20982;SDS011;10650;51.528;6.748;2022-11-20T14:49:27;62.92;;;36.88;;
20982;SDS011;10650;51.528;6.748;2022-11-20T14:51:58;54.17;;;35.83;;
20982;SDS011;10650;51.528;6.748;2022-11-20T14:54:28;54.95;;;33.47;;